createdAt,value
2019-05-07T00:01:55.307Z,58.33
2019-05-07T00:04:26.459Z,57.87
2019-05-07T00:06:57.429Z,58.09
2019-05-07T00:09:28.513Z,58.03
2019-05-07T00:11:59.484Z,57.64
2019-05-07T00:14:31.993Z,57.66
2019-05-07T00:17:04.620Z,57.67
2019-05-07T00:19:35.706Z,57.65
2019-05-07T00:22:07.669Z,58.10
2019-05-07T00:24:38.761Z,57.55
2019-05-07T00:27:09.747Z,57.80
2019-05-07T00:29:42.843Z,57.66
2019-05-07T00:32:13.565Z,58.07
2019-05-07T00:34:48.763Z,57.57
2019-05-07T00:37:35.358Z,57.22
2019-05-07T00:40:35.255Z,57.36
2019-05-07T00:43:24.595Z,57.52
2019-05-07T00:45:58.624Z,57.26
2019-05-07T00:48:29.723Z,57.22
2019-05-07T00:51:18.383Z,57.47
2019-05-07T00:53:51.914Z,57.15
2019-05-07T00:56:22.531Z,57.10
2019-05-07T00:58:53.603Z,56.93
2019-05-07T01:01:24.725Z,56.96
2019-05-07T01:03:55.827Z,57.18
2019-05-07T01:06:27.000Z,57.79
2019-05-07T01:08:58.123Z,57.25
2019-05-07T01:11:29.120Z,57.21
2019-05-07T01:14:00.193Z,56.98
2019-05-07T01:16:32.954Z,57.24
2019-05-07T01:19:04.887Z,57.38
2019-05-07T01:21:35.987Z,56.69
2019-05-07T01:24:07.074Z,56.64
2019-05-07T01:26:38.155Z,56.75
2019-05-07T01:29:10.309Z,57.36
2019-05-07T01:31:47.598Z,57.33
2019-05-07T01:34:28.021Z,56.93
2019-05-07T01:36:59.010Z,56.99
2019-05-07T01:39:30.016Z,57.24
2019-05-07T01:42:02.182Z,57.32
2019-05-07T01:44:33.347Z,57.58
2019-05-07T01:47:05.171Z,57.85
2019-05-07T01:49:36.338Z,58.46
2019-05-07T01:52:07.334Z,58.10
2019-05-07T01:54:38.327Z,57.65
2019-05-07T01:57:09.316Z,57.31
2019-05-07T01:59:42.749Z,57.54
2019-05-07T02:02:33.225Z,57.63
2019-05-07T02:05:14.206Z,57.51
2019-05-07T02:07:52.153Z,58.26
2019-05-07T02:10:31.957Z,58.35
2019-05-07T02:13:02.836Z,58.22
2019-05-07T02:15:33.936Z,58.64
2019-05-07T02:18:05.178Z,58.39
2019-05-07T02:20:36.618Z,59.34
2019-05-07T02:23:07.726Z,59.05
2019-05-07T02:25:38.706Z,58.58
2019-05-07T02:28:09.694Z,58.79
2019-05-07T02:30:44.118Z,58.64
2019-05-07T02:33:14.120Z,58.55
2019-05-07T02:35:45.264Z,58.49
2019-05-07T02:38:23.073Z,58.22
2019-05-07T02:41:03.108Z,58.81
2019-05-07T02:43:34.149Z,59.05
2019-05-07T02:46:26.351Z,59.00
2019-05-07T02:48:58.677Z,59.04
2019-05-07T02:51:38.502Z,59.12
2019-05-07T02:54:24.502Z,59.26
2019-05-07T02:56:55.660Z,58.99
2019-05-07T02:59:26.637Z,59.09
2019-05-07T03:01:57.775Z,58.74
2019-05-07T03:04:28.979Z,59.03
2019-05-07T03:07:00.157Z,59.01
2019-05-07T03:09:32.909Z,59.24
2019-05-07T03:12:05.260Z,58.89
2019-05-07T03:14:36.338Z,59.23
2019-05-07T03:17:07.672Z,58.96
2019-05-07T03:19:42.951Z,58.82
2019-05-07T03:22:14.156Z,58.99
2019-05-07T03:24:56.084Z,58.79
2019-05-07T03:27:27.639Z,59.00
2019-05-07T03:30:19.505Z,58.71
2019-05-07T03:32:57.769Z,58.07
2019-05-07T03:35:37.612Z,58.18
2019-05-07T03:38:08.934Z,58.61
2019-05-07T03:40:40.112Z,58.78
2019-05-07T03:43:13.788Z,58.56
2019-05-07T03:45:56.089Z,58.01
2019-05-07T03:48:28.467Z,58.21
2019-05-07T03:50:59.480Z,58.27
2019-05-07T03:53:33.541Z,58.68
2019-05-07T03:56:04.460Z,58.83
2019-05-07T03:58:35.732Z,58.95
2019-05-07T04:01:06.773Z,58.59
2019-05-07T04:03:37.789Z,58.60
2019-05-07T04:06:08.810Z,58.69
2019-05-07T04:08:42.842Z,58.29
2019-05-07T04:11:13.900Z,58.06
2019-05-07T04:13:45.220Z,58.56
2019-05-07T04:16:16.275Z,59.02
2019-05-07T04:18:47.322Z,58.72
2019-05-07T04:21:18.454Z,58.95
2019-05-07T04:23:54.086Z,59.11
2019-05-07T04:26:34.090Z,59.17
2019-05-07T04:29:07.933Z,59.29
2019-05-07T04:31:43.487Z,58.97
2019-05-07T04:34:19.525Z,58.52
2019-05-07T04:36:53.438Z,59.23
2019-05-07T04:39:23.568Z,59.19
2019-05-07T04:41:54.687Z,59.58
2019-05-07T04:44:25.759Z,59.40
2019-05-07T04:46:56.750Z,58.99
2019-05-07T04:49:27.742Z,59.46
2019-05-07T04:52:04.348Z,59.52
2019-05-07T04:54:36.358Z,59.57
2019-05-07T04:57:12.735Z,60.10
2019-05-07T04:59:44.217Z,59.73
2019-05-07T05:02:19.257Z,59.43
2019-05-07T05:04:53.045Z,59.73
2019-05-07T05:07:22.944Z,60.35
2019-05-07T05:09:53.930Z,60.22
2019-05-07T05:12:25.099Z,60.84
2019-05-07T05:14:56.201Z,60.40
2019-05-07T05:17:27.329Z,60.37
2019-05-07T05:20:00.577Z,60.17
2019-05-07T05:22:53.126Z,60.10
2019-05-07T05:25:28.372Z,59.93
2019-05-07T05:27:59.412Z,60.30
2019-05-07T05:30:42.504Z,60.30
2019-05-07T05:33:14.551Z,60.27
2019-05-07T05:35:45.743Z,59.66
2019-05-07T05:38:16.925Z,59.46
2019-05-07T05:40:48.024Z,60.25
2019-05-07T05:43:26.380Z,60.30
2019-05-07T05:45:59.885Z,59.75
2019-05-07T05:48:33.132Z,59.42
2019-05-07T05:51:26.757Z,59.34
2019-05-07T05:54:02.094Z,59.48
2019-05-07T05:56:39.783Z,59.49
2019-05-07T05:59:47.392Z,58.84
2019-05-07T06:02:17.114Z,58.66
2019-05-07T06:05:02.153Z,58.61
2019-05-07T06:07:37.983Z,58.42
2019-05-07T06:10:18.320Z,58.15
2019-05-07T06:12:58.401Z,58.32
2019-05-07T06:15:47.481Z,58.56
2019-05-07T06:18:41.908Z,58.49
2019-05-07T06:21:32.534Z,58.22
2019-05-07T06:24:06.543Z,58.78
2019-05-07T06:26:37.671Z,59.12
2019-05-07T06:29:08.796Z,58.93
2019-05-07T06:31:42.060Z,58.87
2019-05-07T06:34:12.711Z,58.71
2019-05-07T06:36:44.578Z,58.52
2019-05-07T06:39:23.719Z,57.99
2019-05-07T06:42:12.711Z,57.89
2019-05-07T06:44:46.101Z,57.64
2019-05-07T06:47:17.109Z,57.77
2019-05-07T06:49:48.100Z,57.73
2019-05-07T06:52:19.102Z,57.99
2019-05-07T06:54:52.257Z,57.68
2019-05-07T06:57:24.373Z,56.56
2019-05-07T06:59:59.184Z,57.24
2019-05-07T07:02:52.496Z,56.01
2019-05-07T07:05:42.589Z,57.01
2019-05-07T07:08:26.107Z,57.13
2019-05-07T07:11:34.285Z,56.78
2019-05-07T07:14:06.234Z,57.22
2019-05-07T07:16:37.376Z,56.48
2019-05-07T07:19:08.689Z,56.60
2019-05-07T07:21:42.035Z,56.43
2019-05-07T07:24:12.866Z,56.54
2019-05-07T07:26:44.811Z,55.52
2019-05-07T07:29:17.474Z,56.39
2019-05-07T07:31:55.069Z,55.98
2019-05-07T07:34:27.501Z,55.08
2019-05-07T07:37:15.170Z,54.65
2019-05-07T07:39:44.551Z,53.14
2019-05-07T07:42:15.603Z,52.59
2019-05-07T07:44:48.230Z,53.65
2019-05-07T07:47:19.285Z,53.37
2019-05-07T07:49:52.578Z,52.23
2019-05-07T07:52:23.791Z,50.63
2019-05-07T07:54:54.920Z,50.26
2019-05-07T07:57:46.261Z,50.27
2019-05-07T08:00:45.582Z,50.08
2019-05-07T08:03:16.585Z,49.57
2019-05-07T08:05:47.604Z,46.43
2019-05-07T08:08:18.697Z,45.29
2019-05-07T08:10:52.003Z,43.48
2019-05-07T08:13:23.213Z,44.02
2019-05-07T08:15:54.323Z,44.08
2019-05-07T08:18:25.453Z,43.11
2019-05-07T08:20:56.857Z,42.18
2019-05-07T08:23:27.924Z,41.97
2019-05-07T08:25:59.208Z,41.71
2019-05-07T08:28:31.922Z,41.09
2019-05-07T08:31:22.578Z,39.25
2019-05-07T08:34:04.045Z,38.99
2019-05-07T08:36:35.259Z,39.41
2019-05-07T08:39:07.956Z,39.60
2019-05-07T08:41:39.069Z,39.04
2019-05-07T08:44:15.549Z,39.39
2019-05-07T08:46:53.683Z,39.15
2019-05-07T08:49:35.699Z,37.20
2019-05-07T08:52:03.065Z,36.82
2019-05-07T08:54:34.240Z,36.88
2019-05-07T08:57:06.495Z,37.61
2019-05-07T08:59:37.743Z,36.50
2019-05-07T09:02:08.898Z,35.20
2019-05-07T09:04:41.772Z,36.14
2019-05-07T09:07:13.228Z,37.14
2019-05-07T09:09:45.249Z,37.56
2019-05-07T09:12:16.411Z,36.08
2019-05-07T09:14:47.402Z,35.54
2019-05-07T09:17:18.471Z,35.57
2019-05-07T09:19:52.213Z,36.23
2019-05-07T09:22:23.097Z,35.89
2019-05-07T09:24:54.346Z,35.08
2019-05-07T09:27:46.038Z,33.50
2019-05-07T09:30:47.120Z,34.82
2019-05-07T09:33:24.355Z,35.96
2019-05-07T09:35:56.039Z,35.45
2019-05-07T09:38:27.155Z,34.88
2019-05-07T09:40:58.490Z,35.47
2019-05-07T09:43:29.559Z,35.14
2019-05-07T09:46:02.606Z,34.71
2019-05-07T09:48:34.257Z,33.95
2019-05-07T09:51:06.555Z,33.19
2019-05-07T09:53:37.595Z,32.89
2019-05-07T09:56:09.606Z,32.54
2019-05-07T09:58:42.587Z,33.49
2019-05-07T10:01:13.614Z,34.14
2019-05-07T10:03:45.224Z,34.65
2019-05-07T10:06:16.507Z,34.64
2019-05-07T10:08:47.719Z,34.52
2019-05-07T10:11:29.771Z,35.58
2019-05-07T10:14:07.822Z,35.40
2019-05-07T10:16:54.987Z,35.95
2019-05-07T10:19:26.217Z,35.26
2019-05-07T10:21:57.634Z,34.18
2019-05-07T10:24:28.927Z,34.05
2019-05-07T10:27:02.086Z,35.44
2019-05-07T10:29:33.064Z,35.20
2019-05-07T10:32:04.726Z,36.14
2019-05-07T10:34:35.836Z,36.04
2019-05-07T10:37:07.026Z,37.07
2019-05-07T10:39:38.094Z,35.12
2019-05-07T10:42:09.385Z,36.18
2019-05-07T10:44:46.587Z,35.58
2019-05-07T10:47:48.739Z,35.14
2019-05-07T10:50:35.575Z,35.34
2019-05-07T10:52:56.044Z,34.77
2019-05-07T10:55:27.248Z,36.15
2019-05-07T10:57:58.318Z,36.11
2019-05-07T11:00:30.203Z,34.90
2019-05-07T11:03:02.357Z,35.71
2019-05-07T11:05:33.821Z,36.59
2019-05-07T11:08:05.290Z,34.65
2019-05-07T11:10:36.430Z,35.30
2019-05-07T11:13:07.653Z,35.41
2019-05-07T11:15:39.422Z,35.95
2019-05-07T11:18:18.327Z,35.65
2019-05-07T11:20:51.139Z,35.62
2019-05-07T11:23:22.432Z,33.62
2019-05-07T11:25:53.628Z,34.81
2019-05-07T11:28:24.770Z,34.04
2019-05-07T11:30:55.835Z,33.73
2019-05-07T11:33:26.961Z,33.83
2019-05-07T11:35:58.100Z,33.44
2019-05-07T11:38:29.254Z,34.94
2019-05-07T11:41:02.365Z,34.95
2019-05-07T11:43:53.888Z,34.29
2019-05-07T11:46:32.813Z,35.27
2019-05-07T11:49:22.969Z,35.52
2019-05-07T11:52:02.160Z,34.45
2019-05-07T11:54:33.252Z,35.08
2019-05-07T11:57:04.300Z,34.65
2019-05-07T11:59:35.447Z,34.41
2019-05-07T12:02:07.297Z,34.93
2019-05-07T12:04:39.248Z,34.32
2019-05-07T12:07:11.923Z,36.27
2019-05-07T12:09:43.262Z,35.52
2019-05-07T12:12:15.217Z,36.14
2019-05-07T12:14:46.261Z,36.30
2019-05-07T12:17:17.472Z,33.27
2019-05-07T12:19:48.469Z,32.43
2019-05-07T12:22:38.408Z,31.62
2019-05-07T12:25:09.618Z,31.23
2019-05-07T12:27:40.961Z,31.35
2019-05-07T12:30:15.588Z,34.02
2019-05-07T12:32:55.097Z,35.60
2019-05-07T12:35:26.746Z,35.22
2019-05-07T12:37:57.795Z,34.40
2019-05-07T12:40:29.042Z,32.26
2019-05-07T12:43:01.919Z,31.89
2019-05-07T12:45:33.350Z,32.52
2019-05-07T12:48:04.602Z,33.54
2019-05-07T12:50:35.630Z,31.95
2019-05-07T12:53:29.280Z,32.59
2019-05-07T12:56:02.218Z,34.03
2019-05-07T12:58:33.395Z,32.75
2019-05-07T13:01:08.854Z,31.50
2019-05-07T13:03:52.152Z,31.29
2019-05-07T13:06:23.724Z,30.68
2019-05-07T13:08:54.930Z,30.97
2019-05-07T13:11:26.063Z,32.03
2019-05-07T13:13:57.148Z,32.91
2019-05-07T13:16:28.551Z,33.38
2019-05-07T13:19:01.770Z,32.96
2019-05-07T13:21:45.862Z,32.64
2019-05-07T13:24:05.426Z,31.95
2019-05-07T13:26:36.547Z,30.22
2019-05-07T13:29:07.711Z,30.48
2019-05-07T13:31:40.250Z,30.93
2019-05-07T13:34:12.293Z,30.18
2019-05-07T13:36:47.238Z,30.24
2019-05-07T13:39:34.538Z,31.07
2019-05-07T13:42:24.822Z,31.46
2019-05-07T13:45:02.650Z,30.61
2019-05-07T13:47:38.899Z,32.24
2019-05-07T13:50:12.030Z,31.46
2019-05-07T13:52:43.499Z,34.40
2019-05-07T13:55:16.364Z,30.10
2019-05-07T13:57:48.063Z,31.17
2019-05-07T14:00:27.320Z,30.77
2019-05-07T14:02:58.335Z,30.92
2019-05-07T14:05:29.424Z,32.17
2019-05-07T14:08:00.673Z,33.03
2019-05-07T14:10:33.667Z,35.60
2019-05-07T14:13:12.574Z,32.29
2019-05-07T14:15:37.550Z,32.77
2019-05-07T14:18:08.575Z,31.76
2019-05-07T14:20:39.574Z,33.12
2019-05-07T14:23:14.148Z,33.90
2019-05-07T14:25:43.404Z,32.22
2019-05-07T14:28:15.528Z,31.45
2019-05-07T14:30:46.680Z,31.95
2019-05-07T14:33:22.905Z,31.78
2019-05-07T14:36:04.927Z,32.79
2019-05-07T14:38:42.718Z,33.71
2019-05-07T14:41:13.991Z,34.08
2019-05-07T14:43:52.337Z,33.52
2019-05-07T14:46:23.658Z,32.78
2019-05-07T14:48:54.868Z,31.95
2019-05-07T14:51:26.132Z,32.53
2019-05-07T14:53:57.504Z,32.32
2019-05-07T14:56:28.723Z,32.25
2019-05-07T14:59:02.158Z,32.58
2019-05-07T15:01:34.138Z,31.88
2019-05-07T15:04:05.555Z,31.30
2019-05-07T15:06:36.725Z,30.61
2019-05-07T15:09:08.338Z,30.98
2019-05-07T15:11:39.599Z,31.74
2019-05-07T15:14:12.002Z,32.13
2019-05-07T15:16:43.746Z,32.24
2019-05-07T15:19:15.699Z,32.45
2019-05-07T15:21:51.651Z,32.12
2019-05-07T15:24:22.565Z,31.98
2019-05-07T15:26:56.136Z,32.81
2019-05-07T15:29:27.320Z,32.68
2019-05-07T15:32:08.971Z,31.92
2019-05-07T15:34:42.132Z,32.78
2019-05-07T15:37:13.231Z,32.13
2019-05-07T15:39:45.657Z,32.58
2019-05-07T15:42:16.865Z,33.12
2019-05-07T15:44:47.879Z,32.31
2019-05-07T15:47:24.479Z,32.42
2019-05-07T15:49:55.572Z,32.94
2019-05-07T15:52:51.470Z,32.63
2019-05-07T15:55:17.021Z,32.60
2019-05-07T15:57:48.419Z,32.52
2019-05-07T16:00:21.974Z,33.78
2019-05-07T16:02:57.670Z,34.17
2019-05-07T16:05:28.886Z,33.83
2019-05-07T16:08:01.670Z,33.22
2019-05-07T16:10:33.097Z,33.02
2019-05-07T16:13:04.594Z,32.76
2019-05-07T16:15:35.969Z,33.61
2019-05-07T16:18:12.997Z,33.37
2019-05-07T16:20:43.694Z,33.50
2019-05-07T16:23:18.203Z,34.78
2019-05-07T16:25:48.503Z,34.25
2019-05-07T16:28:21.792Z,34.12
2019-05-07T16:30:52.442Z,33.90
2019-05-07T16:33:23.560Z,33.07
2019-05-07T16:35:54.768Z,33.19
2019-05-07T16:38:25.857Z,32.67
2019-05-07T16:40:56.904Z,32.86
2019-05-07T16:43:28.142Z,33.46
2019-05-07T16:45:59.264Z,34.34
2019-05-07T16:48:32.539Z,33.44
2019-05-07T16:51:03.308Z,32.62
2019-05-07T16:53:35.252Z,33.80
2019-05-07T16:56:07.899Z,34.39
2019-05-07T16:58:43.223Z,35.62
2019-05-07T17:01:14.601Z,35.94
2019-05-07T17:03:52.089Z,36.59
2019-05-07T17:06:25.221Z,37.04
2019-05-07T17:09:02.419Z,36.85
2019-05-07T17:11:34.919Z,37.41
2019-05-07T17:14:06.331Z,36.34
2019-05-07T17:16:37.536Z,35.94
2019-05-07T17:19:11.666Z,36.21
2019-05-07T17:21:43.089Z,36.68
2019-05-07T17:24:14.483Z,36.72
2019-05-07T17:26:45.947Z,37.44
2019-05-07T17:29:17.081Z,37.03
2019-05-07T17:31:48.102Z,36.98
2019-05-07T17:34:19.113Z,36.86
2019-05-07T17:36:52.295Z,37.47
2019-05-07T17:39:22.903Z,37.25
2019-05-07T17:41:54.137Z,37.39
2019-05-07T17:44:25.147Z,37.77
2019-05-07T17:46:56.331Z,37.63
2019-05-07T17:49:27.350Z,37.65
2019-05-07T17:51:58.436Z,37.99
2019-05-07T17:54:31.692Z,38.43
2019-05-07T17:57:02.515Z,38.77
2019-05-07T17:59:33.520Z,38.93
2019-05-07T18:02:14.285Z,39.15
2019-05-07T18:04:51.305Z,39.23
2019-05-07T18:07:20.152Z,39.36
2019-05-07T18:09:51.160Z,39.82
2019-05-07T18:12:22.583Z,39.86
2019-05-07T18:14:53.663Z,39.79
2019-05-07T18:17:42.674Z,40.28
2019-05-07T18:20:13.977Z,40.27
2019-05-07T18:22:46.474Z,40.09
2019-05-07T18:25:17.671Z,40.13
2019-05-07T18:27:48.697Z,40.53
2019-05-07T18:30:22.050Z,40.84
2019-05-07T18:32:58.596Z,40.73
2019-05-07T18:35:29.713Z,40.83
2019-05-07T18:38:02.620Z,41.01
2019-05-07T18:40:33.516Z,41.37
2019-05-07T18:43:04.519Z,41.39
2019-05-07T18:45:35.880Z,41.14
2019-05-07T18:48:07.981Z,41.39
2019-05-07T18:50:39.074Z,41.98
2019-05-07T18:53:12.218Z,42.26
2019-05-07T18:55:43.196Z,42.33
2019-05-07T18:58:14.342Z,42.21
2019-05-07T19:00:51.891Z,42.09
2019-05-07T19:03:25.246Z,42.05
2019-05-07T19:05:56.300Z,42.18
2019-05-07T19:08:27.296Z,42.55
2019-05-07T19:10:58.382Z,42.03
2019-05-07T19:13:29.547Z,41.93
2019-05-07T19:16:02.851Z,42.32
2019-05-07T19:18:33.494Z,42.63
2019-05-07T19:21:06.850Z,42.17
2019-05-07T19:23:38.063Z,42.03
2019-05-07T19:28:46.410Z,42.53
2019-05-07T19:31:17.609Z,42.68
2019-05-07T19:33:48.815Z,42.69
2019-05-07T19:36:22.227Z,43.03
2019-05-07T19:38:52.968Z,43.15
2019-05-07T19:41:24.231Z,42.97
2019-05-07T19:43:55.313Z,43.40
2019-05-07T19:46:26.780Z,43.47
2019-05-07T19:48:57.946Z,43.38
2019-05-07T19:51:28.994Z,43.35
2019-05-07T19:54:02.069Z,43.43
2019-05-07T19:56:32.994Z,43.19
2019-05-07T19:59:04.173Z,43.62
2019-05-07T20:01:43.775Z,43.61
2019-05-07T20:04:14.867Z,43.77
2019-05-07T20:06:46.575Z,44.39
2019-05-07T20:09:20.257Z,44.76
2019-05-07T20:11:52.352Z,44.95
2019-05-07T20:14:23.679Z,44.88
2019-05-07T20:16:54.967Z,44.63
2019-05-07T20:19:26.142Z,44.81
2019-05-07T20:21:57.371Z,45.78
2019-05-07T20:24:28.402Z,46.01
2019-05-07T20:26:59.513Z,46.51
2019-05-07T20:29:32.286Z,47.30
2019-05-07T20:32:04.759Z,47.22
2019-05-07T20:34:35.770Z,47.49
2019-05-07T20:37:08.149Z,47.99
2019-05-07T20:39:39.151Z,48.46
2019-05-07T20:42:12.244Z,48.47
2019-05-07T20:44:43.186Z,48.44
2019-05-07T20:47:14.448Z,48.67
2019-05-07T20:49:46.540Z,48.14
2019-05-07T20:52:17.554Z,48.26
2019-05-07T20:54:55.556Z,48.50
2019-05-07T20:57:31.843Z,49.41
2019-05-07T21:00:02.962Z,49.41
2019-05-07T21:02:45.411Z,49.55
2019-05-07T21:05:08.857Z,49.88
2019-05-07T21:07:42.304Z,49.25
2019-05-07T21:10:13.160Z,49.22
2019-05-07T21:12:44.220Z,49.52
2019-05-07T21:15:15.350Z,49.25
2019-05-07T21:17:46.776Z,49.85
2019-05-07T21:20:17.898Z,49.43
2019-05-07T21:22:48.983Z,49.45
2019-05-07T21:25:20.050Z,49.76
2019-05-07T21:27:53.098Z,49.52
2019-05-07T21:30:23.975Z,49.58
2019-05-07T21:32:55.056Z,49.52
2019-05-07T21:35:26.167Z,49.45
2019-05-07T21:37:57.405Z,49.81
2019-05-07T21:40:28.603Z,50.11
2019-05-07T21:43:00.071Z,49.95
2019-05-07T21:45:32.690Z,50.02
2019-05-07T21:48:03.974Z,50.32
2019-05-07T21:50:35.098Z,50.53
2019-05-07T21:53:12.044Z,50.56
2019-05-07T21:55:59.920Z,50.85
2019-05-07T21:58:36.755Z,50.60
2019-05-07T22:01:12.472Z,50.59
2019-05-07T22:03:48.601Z,51.22
2019-05-07T22:06:19.703Z,51.41
2019-05-07T22:08:52.552Z,51.47
2019-05-07T22:11:23.748Z,51.47
2019-05-07T22:13:55.135Z,51.40
2019-05-07T22:16:26.123Z,51.45
2019-05-07T22:18:57.131Z,51.83
2019-05-07T22:21:28.182Z,51.81
2019-05-07T22:23:59.441Z,51.57
2019-05-07T22:26:32.203Z,51.85
2019-05-07T22:29:03.420Z,52.67
2019-05-07T22:31:53.011Z,52.32
2019-05-07T22:34:32.246Z,52.22
2019-05-07T22:37:03.498Z,52.29
2019-05-07T22:39:45.002Z,52.56
2019-05-07T22:42:17.765Z,52.83
2019-05-07T22:44:48.853Z,52.60
2019-05-07T22:47:22.772Z,52.17
2019-05-07T22:49:53.779Z,52.62
2019-05-07T22:52:24.992Z,52.36
2019-05-07T22:54:56.005Z,52.41
2019-05-07T22:57:33.659Z,52.94
2019-05-07T23:00:05.872Z,52.85
2019-05-07T23:02:38.807Z,52.70
2019-05-07T23:05:12.076Z,53.00
2019-05-07T23:07:44.058Z,53.32
2019-05-07T23:10:15.873Z,53.03
2019-05-07T23:12:47.167Z,53.82
2019-05-07T23:15:18.312Z,53.16
2019-05-07T23:17:49.475Z,53.16
2019-05-07T23:20:24.148Z,52.76
2019-05-07T23:22:53.203Z,52.62
2019-05-07T23:25:24.660Z,52.82
2019-05-07T23:27:55.825Z,52.43
2019-05-07T23:30:26.814Z,52.45
2019-05-07T23:32:57.964Z,52.44
2019-05-07T23:35:29.068Z,52.49
2019-05-07T23:38:02.325Z,52.74
2019-05-07T23:40:41.861Z,53.58
2019-05-07T23:43:13.921Z,53.35
2019-05-07T23:45:44.927Z,53.08
2019-05-07T23:48:17.184Z,53.11
2019-05-07T23:50:48.334Z,53.05
2019-05-07T23:53:19.355Z,52.97
2019-05-07T23:55:52.014Z,53.07
2019-05-07T23:58:23.211Z,52.83
